Time;durP1;ratioP1;P1;durP2;ratioP2;P2;SDS_P1;SDS_P2;PMS_P1;PMS_P2;Temp;Humidity;BMP_temperature;BMP_pressure;BME280_temperature;BME280_humidity;BME280_pressure;Samples;Min_cycle;Max_cycle;Signal;HPM_P1;HPM_P2
2021/09/02 00:01:06;;;;;;;4.57;2.40;;;;;;;;;;5053494;28;20029;-82
2021/09/02 00:03:31;;;;;;;9.80;1.50;;;;;;;;;;5053268;28;20089;-82
2021/09/02 00:05:57;;;;;;;6.60;4.80;;;;;;;;;;5051681;28;20121;-82
2021/09/02 00:08:23;;;;;;;7.97;2.05;;;;;;;;;;5052078;28;20493;-79
2021/09/02 00:10:48;;;;;;;4.95;3.00;;;;;;;;;;5053305;28;20102;-81
2021/09/02 00:13:14;;;;;;;7.80;4.97;;;;;;;;;;5051546;28;20090;-81
2021/09/02 00:15:39;;;;;;;4.72;2.58;;;;;;;;;;5053342;28;20025;-82
2021/09/02 00:18:05;;;;;;;4.78;1.65;;;;;;;;;;5052704;28;20098;-79
2021/09/02 00:20:31;;;;;;;4.95;3.15;;;;;;;;;;5052875;28;20053;-78
2021/09/02 00:22:57;;;;;;;7.88;2.67;;;;;;;;;;5067964;28;20044;-78
2021/09/02 00:25:23;;;;;;;10.48;2.83;;;;;;;;;;5072059;28;20025;-81
2021/09/02 00:27:48;;;;;;;6.22;2.65;;;;;;;;;;5072651;28;20089;-78
2021/09/02 00:30:14;;;;;;;5.68;2.35;;;;;;;;;;5087770;28;20119;-78
2021/09/02 00:32:39;;;;;;;7.90;5.28;;;;;;;;;;5071081;28;20041;-79
2021/09/02 00:35:06;;;;;;;5.53;4.78;;;;;;;;;;5071914;28;20460;-80
2021/09/02 00:37:32;;;;;;;5.13;2.55;;;;;;;;;;5073212;28;20056;-78
2021/09/02 00:39:57;;;;;;;7.25;2.97;;;;;;;;;;5073406;28;20082;-78
2021/09/02 00:42:23;;;;;;;9.48;4.70;;;;;;;;;;5072676;28;20373;-80
2021/09/02 00:44:49;;;;;;;6.13;2.20;;;;;;;;;;5072966;28;20499;-79
2021/09/02 00:47:16;;;;;;;4.03;2.55;;;;;;;;;;5071797;28;20391;-81
2021/09/02 00:49:43;;;;;;;4.55;2.80;;;;;;;;;;5072665;28;20027;-79
2021/09/02 00:52:21;;;;;;;7.35;4.35;;;;;;;;;;5072145;28;20032;-80
2021/09/02 00:54:49;;;;;;;6.13;2.10;;;;;;;;;;5062524;28;20048;-80
2021/09/02 00:57:19;;;;;;;5.88;3.30;;;;;;;;;;5064704;28;20082;-80
2021/09/02 00:59:47;;;;;;;7.30;4.55;;;;;;;;;;5072920;28;20028;-80
2021/09/02 01:02:13;;;;;;;5.40;2.42;;;;;;;;;;5070136;28;20055;-79
2021/09/02 01:04:39;;;;;;;5.05;2.42;;;;;;;;;;5068053;28;20032;-78
2021/09/02 01:07:05;;;;;;;5.75;3.00;;;;;;;;;;5055281;28;20516;-79
2021/09/02 01:09:32;;;;;;;5.45;3.65;;;;;;;;;;5053748;28;20029;-78
2021/09/02 01:11:58;;;;;;;7.53;5.38;;;;;;;;;;5053505;28;20029;-78
2021/09/02 01:14:24;;;;;;;6.40;5.80;;;;;;;;;;5052891;28;20108;-79
2021/09/02 01:16:51;;;;;;;5.50;3.25;;;;;;;;;;5052733;28;20032;-78
2021/09/02 01:19:19;;;;;;;7.22;3.70;;;;;;;;;;5052388;28;20069;-79
2021/09/02 01:21:45;;;;;;;7.47;3.25;;;;;;;;;;5052674;28;20025;-80
2021/09/02 01:24:12;;;;;;;5.47;3.08;;;;;;;;;;5052409;28;20036;-79
2021/09/02 01:26:38;;;;;;;5.85;1.48;;;;;;;;;;5052783;28;20060;-79
2021/09/02 01:29:04;;;;;;;5.70;3.60;;;;;;;;;;5052041;28;20401;-80
2021/09/02 01:31:30;;;;;;;8.18;2.63;;;;;;;;;;5051898;28;20370;-79
2021/09/02 01:33:56;;;;;;;7.72;5.03;;;;;;;;;;5055451;28;20508;-79
2021/09/02 01:36:22;;;;;;;6.93;2.80;;;;;;;;;;5056122;28;20040;-78
2021/09/02 01:38:47;;;;;;;8.30;2.95;;;;;;;;;;5075986;28;20036;-79
2021/09/02 01:41:13;;;;;;;11.98;5.13;;;;;;;;;;5075576;28;20461;-79
2021/09/02 01:43:39;;;;;;;6.47;2.70;;;;;;;;;;5075855;28;20111;-79
2021/09/02 01:46:05;;;;;;;5.43;1.98;;;;;;;;;;5075714;28;20465;-79
2021/09/02 01:48:35;;;;;;;7.25;4.05;;;;;;;;;;5075656;28;20032;-79
2021/09/02 01:51:00;;;;;;;;;;;;;;;;;;5075650;28;20468;-79
2021/09/02 01:53:26;;;;;;;5.82;2.08;;;;;;;;;;5076111;28;19913;-79
2021/09/02 01:55:52;;;;;;;8.18;3.38;;;;;;;;;;5075800;28;20036;-79
2021/09/02 01:58:17;;;;;;;5.32;1.95;;;;;;;;;;5075881;28;20099;-79
2021/09/02 02:00:44;;;;;;;7.60;2.85;;;;;;;;;;5075519;28;20025;-79
2021/09/02 02:03:10;;;;;;;9.68;3.17;;;;;;;;;;5075603;28;20110;-79
2021/09/02 02:05:35;;;;;;;5.30;1.80;;;;;;;;;;5075510;28;20059;-78
2021/09/02 02:08:02;;;;;;;8.23;3.30;;;;;;;;;;5075173;28;20043;-79
2021/09/02 02:10:29;;;;;;;6.75;2.10;;;;;;;;;;5075276;28;20028;-78
2021/09/02 02:12:56;;;;;;;5.45;2.88;;;;;;;;;;5075393;28;20017;-79
2021/09/02 02:15:22;;;;;;;7.50;3.35;;;;;;;;;;5075464;28;20030;-79
2021/09/02 02:17:48;;;;;;;6.25;2.15;;;;;;;;;;5075424;28;20052;-79
2021/09/02 02:20:14;;;;;;;7.35;2.92;;;;;;;;;;5075390;28;20028;-79
2021/09/02 02:22:40;;;;;;;7.20;2.92;;;;;;;;;;5075434;28;20090;-79
2021/09/02 02:25:08;;;;;;;5.68;2.17;;;;;;;;;;5075297;28;20036;-79
2021/09/02 02:27:34;;;;;;;5.03;3.38;;;;;;;;;;5075358;28;20098;-79
2021/09/02 02:30:00;;;;;;;6.85;3.53;;;;;;;;;;5075241;28;20472;-79
2021/09/02 02:32:25;;;;;;;6.43;3.00;;;;;;;;;;5075082;28;20043;-79
2021/09/02 02:34:51;;;;;;;4.57;1.92;;;;;;;;;;5074905;28;20044;-79
2021/09/02 02:37:17;;;;;;;6.63;2.28;;;;;;;;;;5075150;28;20029;-79
2021/09/02 02:39:43;;;;;;;5.65;1.85;;;;;;;;;;5075097;28;20032;-79
2021/09/02 02:42:10;;;;;;;6.78;3.08;;;;;;;;;;5074970;28;20439;-78
2021/09/02 02:44:37;;;;;;;6.10;2.30;;;;;;;;;;5074378;28;20029;-80
2021/09/02 02:47:04;;;;;;;6.22;3.83;;;;;;;;;;5074736;28;20031;-79
2021/09/02 02:49:31;;;;;;;7.85;2.03;;;;;;;;;;5075009;28;20020;-79
2021/09/02 02:51:57;;;;;;;7.22;3.92;;;;;;;;;;5074885;28;20048;-79
2021/09/02 02:54:22;;;;;;;7.88;6.32;;;;;;;;;;5055053;28;20428;-80
2021/09/02 02:56:48;;;;;;;7.32;4.20;;;;;;;;;;5055137;28;20032;-79
2021/09/02 02:59:14;;;;;;;6.32;2.70;;;;;;;;;;5054183;28;20021;-79
2021/09/02 03:01:39;;;;;;;10.70;4.43;;;;;;;;;;5054725;28;20025;-80
2021/09/02 03:04:05;;;;;;;6.28;3.85;;;;;;;;;;5054458;28;20029;-79
2021/09/02 03:06:31;;;;;;;7.15;2.28;;;;;;;;;;5054510;28;20094;-78
2021/09/02 03:08:57;;;;;;;7.68;4.30;;;;;;;;;;5055200;28;20087;-79
2021/09/02 03:11:22;;;;;;;6.85;3.95;;;;;;;;;;5074384;28;20096;-79
2021/09/02 03:13:48;;;;;;;7.82;4.13;;;;;;;;;;5074432;28;20112;-79
2021/09/02 03:16:14;;;;;;;7.82;2.92;;;;;;;;;;5072629;28;20131;-79
2021/09/02 03:18:40;;;;;;;6.30;3.75;;;;;;;;;;5073548;28;20095;-79
2021/09/02 03:21:05;;;;;;;6.15;4.07;;;;;;;;;;5074223;28;20035;-78
2021/09/02 03:23:31;;;;;;;6.63;3.50;;;;;;;;;;5074005;28;20024;-80
2021/09/02 03:25:57;;;;;;;7.50;3.15;;;;;;;;;;5074093;28;20064;-78
2021/09/02 03:28:22;;;;;;;6.93;3.75;;;;;;;;;;5073807;28;20472;-79
2021/09/02 03:30:48;;;;;;;8.52;3.85;;;;;;;;;;5073981;28;20066;-79
2021/09/02 03:33:14;;;;;;;7.50;2.60;;;;;;;;;;5072739;28;20107;-79
2021/09/02 03:35:40;;;;;;;5.28;2.15;;;;;;;;;;5073808;28;20016;-79
2021/09/02 03:38:06;;;;;;;6.40;3.20;;;;;;;;;;5073297;28;20051;-79
2021/09/02 03:40:32;;;;;;;5.80;3.17;;;;;;;;;;5073873;28;20020;-79
2021/09/02 03:42:58;;;;;;;6.43;2.28;;;;;;;;;;5088932;28;20404;-78
2021/09/02 03:45:23;;;;;;;6.40;3.45;;;;;;;;;;5072479;28;20021;-79
2021/09/02 03:47:49;;;;;;;5.72;4.15;;;;;;;;;;5073746;28;20031;-79
2021/09/02 03:50:18;;;;;;;6.22;2.70;;;;;;;;;;5073555;28;20032;-79
2021/09/02 03:52:45;;;;;;;6.40;3.38;;;;;;;;;;5073708;28;20028;-79
2021/09/02 03:55:11;;;;;;;7.53;3.88;;;;;;;;;;5073530;28;20380;-79
2021/09/02 03:57:37;;;;;;;6.25;3.45;;;;;;;;;;5072938;28;20473;-81
2021/09/02 04:00:05;;;;;;;8.70;4.75;;;;;;;;;;5073515;28;20025;-79
2021/09/02 04:02:31;;;;;;;6.35;5.13;;;;;;;;;;5073140;28;20358;-79
2021/09/02 04:04:57;;;;;;;6.65;2.28;;;;;;;;;;5073163;28;20027;-79
2021/09/02 04:07:23;;;;;;;5.80;2.53;;;;;;;;;;5066789;28;20346;-79
2021/09/02 04:09:49;;;;;;;8.38;3.22;;;;;;;;;;5062241;28;20079;-80
2021/09/02 04:12:14;;;;;;;5.10;2.08;;;;;;;;;;5061565;28;20017;-78
2021/09/02 04:14:40;;;;;;;5.43;2.10;;;;;;;;;;5063525;28;20515;-79
2021/09/02 04:17:06;;;;;;;8.52;6.65;;;;;;;;;;5061364;28;20079;-79
2021/09/02 04:19:32;;;;;;;6.63;4.13;;;;;;;;;;5061773;28;20021;-79
2021/09/02 04:21:58;;;;;;;5.95;3.60;;;;;;;;;;5060476;28;20021;-78
2021/09/02 04:24:25;;;;;;;6.57;3.25;;;;;;;;;;5062707;28;20357;-79
2021/09/02 04:26:50;;;;;;;10.45;3.08;;;;;;;;;;5063349;28;20020;-79
2021/09/02 04:29:16;;;;;;;5.55;3.38;;;;;;;;;;5061542;28;20021;-79
2021/09/02 04:31:42;;;;;;;6.00;3.88;;;;;;;;;;5067175;28;20024;-79
2021/09/02 04:34:07;;;;;;;6.70;3.40;;;;;;;;;;5073210;28;20031;-80
2021/09/02 04:36:33;;;;;;;7.03;6.28;;;;;;;;;;5072938;28;20365;-79
2021/09/02 04:38:59;;;;;;;9.27;2.10;;;;;;;;;;5071922;28;20028;-79
2021/09/02 04:41:24;;;;;;;5.93;2.15;;;;;;;;;;5073141;28;20074;-78
2021/09/02 04:43:50;;;;;;;6.45;3.40;;;;;;;;;;5073030;28;20032;-78
2021/09/02 04:46:15;;;;;;;7.95;3.10;;;;;;;;;;5072795;28;20082;-78
2021/09/02 04:48:41;;;;;;;6.85;3.53;;;;;;;;;;5072980;28;20099;-80
2021/09/02 04:51:07;;;;;;;5.47;3.42;;;;;;;;;;5073175;28;20031;-79
2021/09/02 04:53:32;;;;;;;5.68;2.70;;;;;;;;;;5073153;28;20384;-78
2021/09/02 04:55:58;;;;;;;7.20;3.28;;;;;;;;;;5072385;28;20540;-78
2021/09/02 04:58:24;;;;;;;4.95;2.05;;;;;;;;;;5072335;28;20020;-79
2021/09/02 05:01:10;;;;;;;5.15;3.42;;;;;;;;;;5070801;28;20123;-78
2021/09/02 05:03:35;;;;;;;9.82;2.17;;;;;;;;;;5070877;28;20082;-77
2021/09/02 05:06:01;;;;;;;6.90;2.95;;;;;;;;;;5072190;28;20464;-77
2021/09/02 05:08:27;;;;;;;5.90;3.22;;;;;;;;;;5072094;28;20039;-77
2021/09/02 05:10:52;;;;;;;4.38;1.70;;;;;;;;;;5076093;28;20024;-77
2021/09/02 05:13:18;;;;;;;8.02;3.97;;;;;;;;;;5076123;28;20022;-77
2021/09/02 05:15:44;;;;;;;6.53;2.90;;;;;;;;;;5076144;28;20069;-78
2021/09/02 05:18:09;;;;;;;4.57;1.95;;;;;;;;;;5075683;28;20063;-79
2021/09/02 05:20:35;;;;;;;6.25;1.60;;;;;;;;;;5075794;28;20025;-77
2021/09/02 05:23:01;;;;;;;4.95;1.85;;;;;;;;;;5076071;28;20070;-82
2021/09/02 05:25:26;;;;;;;5.72;3.25;;;;;;;;;;5076556;28;20035;-80
2021/09/02 05:27:52;;;;;;;5.10;2.60;;;;;;;;;;5091593;28;20016;-80
2021/09/02 05:30:18;;;;;;;8.38;3.03;;;;;;;;;;5075816;28;20028;-79
2021/09/02 05:32:44;;;;;;;9.30;3.28;;;;;;;;;;5076164;28;20099;-80
2021/09/02 05:35:11;;;;;;;6.82;3.85;;;;;;;;;;5076317;28;20024;-80
2021/09/02 05:37:37;;;;;;;6.70;3.83;;;;;;;;;;5076707;28;20384;-78
2021/09/02 05:40:05;;;;;;;5.43;2.20;;;;;;;;;;5091488;28;20000;-79
2021/09/02 05:42:30;;;;;;;7.38;2.30;;;;;;;;;;5086434;28;20028;-79
2021/09/02 05:44:56;;;;;;;4.63;2.83;;;;;;;;;;5056654;28;20029;-79
2021/09/02 05:47:22;;;;;;;8.73;3.00;;;;;;;;;;5056284;28;20017;-78
2021/09/02 05:49:48;;;;;;;5.93;1.98;;;;;;;;;;5071570;28;20025;-78
2021/09/02 05:52:14;;;;;;;7.47;1.38;;;;;;;;;;5076364;28;20060;-78
2021/09/02 05:54:39;;;;;;;7.72;2.55;;;;;;;;;;5066195;28;20550;-78
2021/09/02 05:57:06;;;;;;;4.80;3.13;;;;;;;;;;5056067;28;20346;-78
2021/09/02 05:59:32;;;;;;;4.97;3.28;;;;;;;;;;5060929;28;20025;-78
2021/09/02 06:01:57;;;;;;;11.85;2.60;;;;;;;;;;5069909;28;20017;-78
2021/09/02 06:04:23;;;;;;;15.57;4.43;;;;;;;;;;5074075;28;20033;-78
2021/09/02 06:06:49;;;;;;;7.45;2.45;;;;;;;;;;5075837;28;20024;-77
2021/09/02 06:09:14;;;;;;;5.38;1.42;;;;;;;;;;5075251;28;20028;-78
2021/09/02 06:11:40;;;;;;;5.75;3.63;;;;;;;;;;5072031;28;20099;-78
2021/09/02 06:14:06;;;;;;;6.82;2.13;;;;;;;;;;5075321;28;20390;-77
2021/09/02 06:16:31;;;;;;;8.18;2.95;;;;;;;;;;5073230;28;20388;-77
2021/09/02 06:18:57;;;;;;;8.60;3.13;;;;;;;;;;5071487;28;20042;-78
2021/09/02 06:21:23;;;;;;;6.82;2.78;;;;;;;;;;5073935;28;20033;-78
2021/09/02 06:23:48;;;;;;;5.85;3.03;;;;;;;;;;5073648;28;20052;-77
2021/09/02 06:26:14;;;;;;;5.22;1.83;;;;;;;;;;5073402;28;20029;-77
2021/09/02 06:28:40;;;;;;;4.60;2.70;;;;;;;;;;5073499;28;20028;-78
2021/09/02 06:31:05;;;;;;;6.70;1.80;;;;;;;;;;5073949;28;20020;-79
2021/09/02 06:33:31;;;;;;;5.30;2.40;;;;;;;;;;5073868;28;20388;-79
2021/09/02 06:35:58;;;;;;;7.28;2.55;;;;;;;;;;5074773;28;20096;-78
2021/09/02 06:38:23;;;;;;;5.53;2.22;;;;;;;;;;5073300;28;20028;-78
2021/09/02 06:40:49;;;;;;;4.75;1.88;;;;;;;;;;5074187;28;20032;-78
2021/09/02 06:43:14;;;;;;;3.95;2.03;;;;;;;;;;5075016;28;20046;-77
2021/09/02 06:45:40;;;;;;;3.50;1.88;;;;;;;;;;5074606;28;20028;-78
2021/09/02 06:48:06;;;;;;;4.85;2.80;;;;;;;;;;5073158;28;20016;-78
2021/09/02 06:50:31;;;;;;;4.10;2.13;;;;;;;;;;5074801;28;20091;-77
2021/09/02 06:52:57;;;;;;;4.57;1.92;;;;;;;;;;5073562;28;20053;-78
2021/09/02 06:55:23;;;;;;;3.83;1.10;;;;;;;;;;5072383;28;20029;-79
2021/09/02 06:57:48;;;;;;;3.30;1.75;;;;;;;;;;5074544;28;20021;-78
2021/09/02 07:00:14;;;;;;;4.32;1.70;;;;;;;;;;5070326;28;20055;-78
2021/09/02 07:02:40;;;;;;;3.78;0.85;;;;;;;;;;5070194;28;20028;-79
2021/09/02 07:05:07;;;;;;;4.78;1.80;;;;;;;;;;5074448;28;20099;-81
2021/09/02 07:07:33;;;;;;;3.05;0.93;;;;;;;;;;5068997;28;20028;-79
2021/09/02 07:09:58;;;;;;;4.45;1.77;;;;;;;;;;5070967;28;20033;-82
2021/09/02 07:12:24;;;;;;;2.75;0.77;;;;;;;;;;5069785;28;20096;-79
2021/09/02 07:14:50;;;;;;;5.85;2.25;;;;;;;;;;5056305;28;20108;-78
2021/09/02 07:17:16;;;;;;;3.42;1.88;;;;;;;;;;5066070;28;20480;-78
2021/09/02 07:19:41;;;;;;;6.05;1.60;;;;;;;;;;5072462;28;20025;-78
2021/09/02 07:22:07;;;;;;;5.40;2.13;;;;;;;;;;5072454;28;20065;-78
2021/09/02 07:24:33;;;;;;;3.65;0.60;;;;;;;;;;5074144;28;20031;-79
2021/09/02 07:26:59;;;;;;;3.08;1.77;;;;;;;;;;5073923;28;20391;-79
2021/09/02 07:29:24;;;;;;;7.75;2.78;;;;;;;;;;5073956;28;20029;-79
2021/09/02 07:31:50;;;;;;;5.18;2.10;;;;;;;;;;5073606;28;20016;-76
2021/09/02 07:34:16;;;;;;;4.03;2.03;;;;;;;;;;5073606;28;20042;-76
2021/09/02 07:36:41;;;;;;;3.92;1.38;;;;;;;;;;5067370;28;20056;-76
2021/09/02 07:39:07;;;;;;;3.78;1.70;;;;;;;;;;5074150;28;20028;-77
2021/09/02 07:41:34;;;;;;;3.33;2.30;;;;;;;;;;5074204;28;20024;-77
2021/09/02 07:43:59;;;;;;;3.65;1.65;;;;;;;;;;5073740;28;20033;-78
2021/09/02 07:46:25;;;;;;;3.72;1.88;;;;;;;;;;5073713;28;20032;-79
2021/09/02 07:48:50;;;;;;;6.45;1.40;;;;;;;;;;5073786;28;20532;-78
2021/09/02 07:51:18;;;;;;;7.47;1.85;;;;;;;;;;5068394;28;20032;-78
2021/09/02 07:53:43;;;;;;;3.22;2.35;;;;;;;;;;5054163;28;20021;-77
2021/09/02 07:56:09;;;;;;;3.75;2.03;;;;;;;;;;5071653;28;20040;-81
2021/09/02 07:58:35;;;;;;;4.30;1.83;;;;;;;;;;5055776;28;20393;-77
2021/09/02 08:01:02;;;;;;;3.70;2.15;;;;;;;;;;5051585;28;20021;-77
2021/09/02 08:03:27;;;;;;;3.25;1.77;;;;;;;;;;5051606;28;20025;-77
2021/09/02 08:05:53;;;;;;;2.60;1.52;;;;;;;;;;5051748;28;20025;-77
2021/09/02 08:08:20;;;;;;;2.55;0.80;;;;;;;;;;5052138;28;20025;-78
2021/09/02 08:10:47;;;;;;;3.05;1.75;;;;;;;;;;5052175;28;20029;-78
2021/09/02 08:13:13;;;;;;;3.75;1.67;;;;;;;;;;5052449;28;20029;-78
2021/09/02 08:15:39;;;;;;;3.13;1.73;;;;;;;;;;5053155;28;20377;-78
2021/09/02 08:18:06;;;;;;;3.65;1.20;;;;;;;;;;5052745;28;20045;-78
2021/09/02 08:20:33;;;;;;;4.03;1.73;;;;;;;;;;5052952;28;20086;-77
2021/09/02 08:22:59;;;;;;;2.70;1.10;;;;;;;;;;5053286;28;20029;-77
2021/09/02 08:25:25;;;;;;;2.35;0.70;;;;;;;;;;5053183;28;20067;-80
2021/09/02 08:27:51;;;;;;;4.38;1.42;;;;;;;;;;5053170;28;20040;-80
2021/09/02 08:30:19;;;;;;;3.42;1.63;;;;;;;;;;5052679;28;20065;-79
2021/09/02 08:32:49;;;;;;;2.80;0.80;;;;;;;;;;5051437;28;20538;-78
2021/09/02 08:35:23;;;;;;;3.35;1.60;;;;;;;;;;5052800;28;20087;-77
2021/09/02 08:37:55;;;;;;;2.45;1.55;;;;;;;;;;5051767;28;20032;-78
2021/09/02 08:40:24;;;;;;;4.15;0.55;;;;;;;;;;5051335;28;20112;-77
2021/09/02 08:42:50;;;;;;;1.80;0.43;;;;;;;;;;5054735;28;20056;-77
2021/09/02 08:45:17;;;;;;;2.38;0.85;;;;;;;;;;5057042;28;20052;-78
2021/09/02 08:47:48;;;;;;;2.92;0.73;;;;;;;;;;5056727;28;20029;-78
2021/09/02 08:50:16;;;;;;;3.38;1.45;;;;;;;;;;5056197;28;20481;-78
2021/09/02 08:52:42;;;;;;;3.10;1.10;;;;;;;;;;5056538;28;20377;-78
2021/09/02 08:55:09;;;;;;;4.93;1.50;;;;;;;;;;5056208;28;20096;-76
2021/09/02 08:57:40;;;;;;;5.65;2.85;;;;;;;;;;5057990;28;20017;-79
2021/09/02 09:00:08;;;;;;;4.40;0.88;;;;;;;;;;5072498;28;20037;-77
2021/09/02 09:02:38;;;;;;;3.83;1.00;;;;;;;;;;5056377;28;20021;-75
2021/09/02 09:05:05;;;;;;;;;;;;;;;;;;5056855;28;20025;-77
2021/09/02 09:07:38;;;;;;;4.53;1.63;;;;;;;;;;5056303;28;19916;-77
2021/09/02 09:10:10;;;;;;;4.40;0.85;;;;;;;;;;5056212;28;20056;-78
2021/09/02 09:12:39;;;;;;;3.78;1.48;;;;;;;;;;5055938;28;20096;-76
2021/09/02 09:15:07;;;;;;;2.78;1.75;;;;;;;;;;5056321;28;20032;-76
2021/09/02 09:17:33;;;;;;;3.10;1.25;;;;;;;;;;5054758;28;20512;-76
2021/09/02 09:19:59;;;;;;;4.28;2.03;;;;;;;;;;5055873;28;20477;-76
2021/09/02 09:22:28;;;;;;;4.40;0.68;;;;;;;;;;5055697;28;20032;-77
2021/09/02 09:24:56;;;;;;;3.15;1.48;;;;;;;;;;5055965;28;20385;-78
2021/09/02 09:27:32;;;;;;;3.90;0.52;;;;;;;;;;5055954;28;20021;-79
2021/09/02 09:30:11;;;;;;;2.92;1.35;;;;;;;;;;5055822;28;20086;-82
2021/09/02 09:32:43;;;;;;;3.60;1.35;;;;;;;;;;5055666;28;20520;-77
2021/09/02 09:35:13;;;;;;;4.78;1.52;;;;;;;;;;5054799;28;20393;-78
2021/09/02 09:37:40;;;;;;;10.82;2.38;;;;;;;;;;5055693;28;20025;-78
2021/09/02 09:40:14;;;;;;;3.38;1.48;;;;;;;;;;5056168;28;20113;-78
2021/09/02 09:42:55;;;;;;;5.25;1.98;;;;;;;;;;5055632;28;20112;-78
2021/09/02 09:45:40;;;;;;;6.22;2.17;;;;;;;;;;5055397;28;20025;-77
2021/09/02 09:48:38;;;;;;;4.28;2.90;;;;;;;;;;5055752;28;20025;-78
2021/09/02 09:51:19;;;;;;;4.28;1.88;;;;;;;;;;5055350;28;20045;-77
2021/09/02 09:53:50;;;;;;;2.72;0.47;;;;;;;;;;5055628;28;20108;-76
2021/09/02 09:56:19;;;;;;;5.60;1.23;;;;;;;;;;5055678;28;20024;-78
2021/09/02 09:58:46;;;;;;;4.78;1.58;;;;;;;;;;5055658;28;20055;-78
2021/09/02 10:01:13;;;;;;;3.22;1.27;;;;;;;;;;5055790;28;20059;-82
2021/09/02 10:03:40;;;;;;;2.13;0.70;;;;;;;;;;5055908;28;20025;-77
2021/09/02 10:06:08;;;;;;;1.70;0.50;;;;;;;;;;5056002;28;20025;-78
2021/09/02 10:08:42;;;;;;;3.90;1.25;;;;;;;;;;5055964;28;20389;-78
2021/09/02 10:11:11;;;;;;;2.92;0.75;;;;;;;;;;5055621;28;20027;-78
2021/09/02 10:13:38;;;;;;;2.38;1.30;;;;;;;;;;5055619;28;20484;-77
2021/09/02 10:16:05;;;;;;;4.53;0.85;;;;;;;;;;5055247;28;20033;-78
2021/09/02 10:18:33;;;;;;;3.10;0.75;;;;;;;;;;5055597;28;20101;-77
2021/09/02 10:21:05;;;;;;;3.50;1.70;;;;;;;;;;5074556;28;20016;-78
2021/09/02 10:23:31;;;;;;;2.45;1.63;;;;;;;;;;5078942;28;20040;-78
2021/09/02 10:25:57;;;;;;;6.43;0.68;;;;;;;;;;5096799;28;20021;-79
2021/09/02 10:28:30;;;;;;;3.55;0.75;;;;;;;;;;5097302;28;20079;-80
2021/09/02 10:30:59;;;;;;;2.63;0.65;;;;;;;;;;5076297;28;20024;-77
2021/09/02 10:33:34;;;;;;;3.30;0.47;;;;;;;;;;5076021;28;20154;-79
2021/09/02 10:36:15;;;;;;;3.92;1.02;;;;;;;;;;5075352;28;20033;-79
2021/09/02 10:38:52;;;;;;;3.13;0.50;;;;;;;;;;5074323;28;20024;-77
2021/09/02 10:41:44;;;;;;;4.25;0.60;;;;;;;;;;5074691;28;20071;-79
2021/09/02 10:44:15;;;;;;;4.75;1.45;;;;;;;;;;5074418;28;20523;-78
2021/09/02 10:46:43;;;;;;;2.83;1.45;;;;;;;;;;5074938;28;20376;-80
2021/09/02 10:49:27;;;;;;;2.92;0.82;;;;;;;;;;5074769;28;20020;-78
2021/09/02 10:51:57;;;;;;;2.33;0.57;;;;;;;;;;5074562;28;20418;-79
2021/09/02 10:54:35;;;;;;;3.50;0.88;;;;;;;;;;5074433;28;20027;-79
2021/09/02 10:57:09;;;;;;;3.15;1.30;;;;;;;;;;5074861;28;20028;-79
2021/09/02 10:59:52;;;;;;;5.78;1.98;;;;;;;;;;5074478;28;20029;-82
2021/09/02 11:02:17;;;;;;;4.88;0.50;;;;;;;;;;5074889;28;20082;-80
2021/09/02 11:04:44;;;;;;;2.60;1.83;;;;;;;;;;5074906;28;20024;-76
2021/09/02 11:07:10;;;;;;;2.95;1.58;;;;;;;;;;5073034;28;20063;-79
2021/09/02 11:09:39;;;;;;;2.92;0.93;;;;;;;;;;5070571;28;20052;-80
2021/09/02 11:12:10;;;;;;;2.78;1.58;;;;;;;;;;5090117;28;20468;-78
2021/09/02 11:14:42;;;;;;;3.65;1.48;;;;;;;;;;5074225;28;20032;-81
2021/09/02 11:17:07;;;;;;;3.75;1.20;;;;;;;;;;5074223;28;20107;-79
2021/09/02 11:19:36;;;;;;;3.10;1.13;;;;;;;;;;5074214;28;20429;-83
2021/09/02 11:22:08;;;;;;;4.38;1.02;;;;;;;;;;5074262;28;20021;-78
2021/09/02 11:24:43;;;;;;;3.67;1.63;;;;;;;;;;5074371;28;20380;-78
2021/09/02 11:27:29;;;;;;;3.28;2.67;;;;;;;;;;5089830;28;20538;-81
2021/09/02 11:30:19;;;;;;;3.55;1.92;;;;;;;;;;5074484;28;20386;-79
2021/09/02 11:32:51;;;;;;;4.22;1.38;;;;;;;;;;5074653;28;20107;-78
2021/09/02 11:35:18;;;;;;;3.88;1.58;;;;;;;;;;5074054;28;20078;-81
2021/09/02 11:37:45;;;;;;;4.50;1.58;;;;;;;;;;5089861;28;20024;-77
2021/09/02 11:40:23;;;;;;;4.00;1.75;;;;;;;;;;5073484;28;20021;-79
2021/09/02 11:42:50;;;;;;;3.50;1.77;;;;;;;;;;5073419;28;20029;-79
2021/09/02 11:45:20;;;;;;;5.57;1.70;;;;;;;;;;5073608;28;20495;-78
2021/09/02 11:47:48;;;;;;;3.95;1.67;;;;;;;;;;5073245;28;20384;-79
2021/09/02 11:50:14;;;;;;;2.80;0.50;;;;;;;;;;5073153;28;20073;-82
2021/09/02 11:52:44;;;;;;;5.30;2.50;;;;;;;;;;5073180;28;20036;-80
2021/09/02 11:55:34;;;;;;;3.20;2.10;;;;;;;;;;5073521;28;20063;-79
2021/09/02 11:58:05;;;;;;;7.15;1.70;;;;;;;;;;5073119;28;20055;-81
2021/09/02 12:00:32;;;;;;;4.97;1.65;;;;;;;;;;5073383;28;20031;-80
2021/09/02 12:03:00;;;;;;;2.80;1.67;;;;;;;;;;5071868;28;20103;-78
2021/09/02 12:05:38;;;;;;;2.85;1.58;;;;;;;;;;5073210;28;20024;-80
2021/09/02 12:08:09;;;;;;;3.30;0.80;;;;;;;;;;5073140;28;20024;-79
2021/09/02 12:10:36;;;;;;;3.38;1.58;;;;;;;;;;5073440;28;20021;-81
2021/09/02 12:13:25;;;;;;;2.97;0.93;;;;;;;;;;5073733;28;20082;-80
2021/09/02 12:16:05;;;;;;;3.67;1.52;;;;;;;;;;5073885;28;20016;-78
2021/09/02 12:18:35;;;;;;;4.63;1.60;;;;;;;;;;5072506;28;20047;-77
2021/09/02 12:21:12;;;;;;;7.35;2.47;;;;;;;;;;5073205;28;20464;-78
2021/09/02 12:23:43;;;;;;;6.43;4.65;;;;;;;;;;5073096;28;20433;-77
2021/09/02 12:26:09;;;;;;;6.30;1.88;;;;;;;;;;5071949;28;20031;-78
2021/09/02 12:28:37;;;;;;;3.83;2.28;;;;;;;;;;5073064;28;20024;-76
2021/09/02 12:31:19;;;;;;;2.72;0.95;;;;;;;;;;5072814;28;20055;-77
2021/09/02 12:33:57;;;;;;;5.97;2.50;;;;;;;;;;5073204;28;20032;-77
2021/09/02 12:36:23;;;;;;;4.90;1.95;;;;;;;;;;5073100;28;20021;-78
2021/09/02 12:38:49;;;;;;;4.40;1.88;;;;;;;;;;5073546;28;20021;-85
2021/09/02 12:41:23;;;;;;;4.25;1.55;;;;;;;;;;5067096;28;20103;-78
2021/09/02 12:44:07;;;;;;;2.45;0.85;;;;;;;;;;5063082;28;20029;-78
2021/09/02 12:46:47;;;;;;;3.33;2.55;;;;;;;;;;5073092;28;20484;-80
2021/09/02 12:49:13;;;;;;;5.45;1.92;;;;;;;;;;5072733;28;20109;-78
2021/09/02 12:51:38;;;;;;;4.03;1.60;;;;;;;;;;5072998;28;20063;-78
2021/09/02 12:54:04;;;;;;;8.80;2.03;;;;;;;;;;5072937;28;20464;-79
2021/09/02 12:56:37;;;;;;;4.97;2.17;;;;;;;;;;5055248;28;20503;-79
2021/09/02 12:59:04;;;;;;;3.92;1.92;;;;;;;;;;5053767;28;20040;-79
2021/09/02 13:01:30;;;;;;;6.35;1.80;;;;;;;;;;5072469;28;20043;-82
2021/09/02 13:04:00;;;;;;;3.03;0.90;;;;;;;;;;5071961;28;20035;-79
2021/09/02 13:06:33;;;;;;;4.20;1.95;;;;;;;;;;5072190;28;20163;-79
2021/09/02 13:08:59;;;;;;;3.63;1.73;;;;;;;;;;5087921;28;20028;-80
2021/09/02 13:11:25;;;;;;;2.92;0.88;;;;;;;;;;5072209;28;20052;-82
2021/09/02 13:13:51;;;;;;;3.75;1.63;;;;;;;;;;5072042;28;20042;-80
2021/09/02 13:16:17;;;;;;;4.65;0.90;;;;;;;;;;5071085;28;20103;-80
2021/09/02 13:18:43;;;;;;;4.25;1.45;;;;;;;;;;5071973;28;20128;-79
2021/09/02 13:21:08;;;;;;;4.60;0.88;;;;;;;;;;5071481;28;20021;-78
2021/09/02 13:23:34;;;;;;;2.47;0.47;;;;;;;;;;5072285;28;20033;-79
2021/09/02 13:26:00;;;;;;;4.38;1.60;;;;;;;;;;5087807;28;20035;-78
2021/09/02 13:28:25;;;;;;;3.60;1.55;;;;;;;;;;5073427;28;20024;-78
2021/09/02 13:30:51;;;;;;;3.40;1.92;;;;;;;;;;5076043;28;20024;-81
2021/09/02 13:33:17;;;;;;;5.13;2.58;;;;;;;;;;5076127;28;20078;-78
2021/09/02 13:35:42;;;;;;;3.90;2.15;;;;;;;;;;5075758;28;20380;-77
2021/09/02 13:38:08;;;;;;;4.35;2.35;;;;;;;;;;5075839;28;20059;-77
2021/09/02 13:40:34;;;;;;;4.78;2.00;;;;;;;;;;5056335;28;20400;-76
2021/09/02 13:43:00;;;;;;;6.20;2.00;;;;;;;;;;5054502;28;20040;-75
2021/09/02 13:45:25;;;;;;;2.80;1.00;;;;;;;;;;5056325;28;20033;-75
2021/09/02 13:47:51;;;;;;;4.35;2.85;;;;;;;;;;5056417;28;20032;-75
2021/09/02 13:50:17;;;;;;;3.60;2.25;;;;;;;;;;5056389;28;20029;-75
2021/09/02 13:52:43;;;;;;;3.47;1.63;;;;;;;;;;5056411;28;20107;-77
2021/09/02 13:55:12;;;;;;;4.43;1.73;;;;;;;;;;5056266;28;20029;-76
2021/09/02 13:57:38;;;;;;;6.28;1.90;;;;;;;;;;5056379;28;20108;-76
2021/09/02 14:00:06;;;;;;;6.15;1.35;;;;;;;;;;5056231;28;20100;-75
2021/09/02 14:02:32;;;;;;;4.20;2.47;;;;;;;;;;5056265;28;20017;-76
2021/09/02 14:04:57;;;;;;;4.70;1.65;;;;;;;;;;5056079;28;20040;-76
2021/09/02 14:07:24;;;;;;;4.72;2.15;;;;;;;;;;5054820;28;20530;-76
2021/09/02 14:09:50;;;;;;;3.50;2.05;;;;;;;;;;5056092;28;20037;-76
2021/09/02 14:12:15;;;;;;;4.50;1.73;;;;;;;;;;5056179;28;20025;-76
2021/09/02 14:14:41;;;;;;;4.85;1.98;;;;;;;;;;5055996;28;20095;-76
2021/09/02 14:17:07;;;;;;;4.38;2.35;;;;;;;;;;5056229;28;20025;-76
2021/09/02 14:19:33;;;;;;;4.03;2.05;;;;;;;;;;5054594;28;20029;-76
2021/09/02 14:21:58;;;;;;;4.88;1.05;;;;;;;;;;5055738;28;20104;-76
2021/09/02 14:24:24;;;;;;;7.30;1.00;;;;;;;;;;5055628;28;20520;-76
2021/09/02 14:26:50;;;;;;;4.75;2.05;;;;;;;;;;5055847;28;20029;-75
2021/09/02 14:29:15;;;;;;;8.10;1.90;;;;;;;;;;5055606;28;20107;-76
2021/09/02 14:31:41;;;;;;;4.75;2.05;;;;;;;;;;5055609;28;20542;-76
2021/09/02 14:34:06;;;;;;;5.78;2.05;;;;;;;;;;5056041;28;20039;-76
2021/09/02 14:36:32;;;;;;;6.30;1.70;;;;;;;;;;5070898;28;20052;-76
2021/09/02 14:38:58;;;;;;;4.25;0.77;;;;;;;;;;5055533;28;20032;-77
2021/09/02 14:41:23;;;;;;;3.97;0.90;;;;;;;;;;5053336;28;20025;-76
2021/09/02 14:43:49;;;;;;;5.35;1.67;;;;;;;;;;5055371;28;20095;-75
2021/09/02 14:46:15;;;;;;;4.75;2.15;;;;;;;;;;5055531;28;20025;-76